Flight Number: AVA5126 Duration: 4:00
Departure: Lagos Airport (DNMM) at 12:00 Distance: 1634.13 Nm
Arrival: Airport Marrakech (GMMX) at 16:00 Equipment: B737

Weather Information
Lagos / Ikeja, Nigeria (DNMM) 06-35N 003-20E 38M Jul 19, 2024 - 03:00 PM EDT / 2024.07.19 1900 UTC
Wind: from the SSW (200 degrees) at 10 MPH (9 KT):0
Visibility: greater than 7 mile(s):0
Sky conditions: partly cloudy Temperature: 78 F (26 C) Dew Point: 73 F (23 C) Relative Humidity: 83% Pressure (altimeter): 29.94 in. Hg (1014 hPa)
ob: DNMM 191900Z 20009KT 9999 SCT010 26/23 Q1014 NOSIG cycle: 19
Sunrise: 05:42 Sunset: 18:04 (UTC)

Marrakech, Morocco (GMMX) 31-37N 008-02W 466M Jul 19, 2024 - 03:00 PM EDT / 2024.07.19 1900 UTC
Wind: from the NW (310 degrees) at 8 MPH (7 KT) (direction variable):0
Visibility: 3 mile(s):0
Sky conditions: mostly cloudy Weather: Cumulonimbus clouds observed Temperature: 102 F (39 C) Heat index: 102.2 F (39.0 C):1 Dew Point: 59 F (15 C) Relative Humidity: 24% Pressure (altimeter): 30.00 in. Hg (1016 hPa)
ob: GMMX 191900Z 31007KT 270V020 6000 SCT026 FEW040CB BKN090 39/15 Q1016 NOSIG cycle: 19
Sunrise: 05:43 Sunset: 19:33 (UTC)

TAF:2024/07/19 18:30 TAF GMMX 191700Z 1918/2024 02006KT 8000 SCT026 SCT100 PROB30 TEMPO 1918/1922 32016G32KT 3000 TSRA BKN026 FEW033CB

Previous Pireps for this route
Date Flightnr Aircraft Flight time Fuel used Landing rate On time
2016-04-06AVA5126B73704.1624037-198Yes
(pireps marked green are flown by you)

Route map